Hlavní strana
METAR-TAF:

METAR-TAF

Letiště :

Rimini, Itálie

zeměpisná šířka: 44-02N, zeměpisná délka: 012-37E, výška: 12 m

Aktuální stav počasí

Zpráva byla vytvořena před 27 minutami, v 02:20 UTC
Severozápadní vítr 4 kt, proměnlivý mezi západním a severoseverozápadním
Teplota 3°C
Vlhkost vzduchu 87%
Tlak 1016 hPa
Viditelnost 10 km a více

METAR: LIPR 130220Z AUTO 31004KT 260V340 9999 BKN074/// 03/01 Q1016

Čas: 03:47 (02:47 UTC)

Předpověď počasí

Zpráva byla vytvořena před 47 minutami, v 02:00 UTC
Předpověď platná od 13 v 03 UTC do 13 v 12 UTC
vítr z různých směrů 5 kt
Viditelnost 10 km a více
Skoro jasno ve výšce 3000 ft
Dočasný
od 13 v 03 UTC do 13 v 12 UTC
déšť

TAF: LIPR 130200Z 1303/1312 VRB05KT 9999 FEW030 TEMPO 1303/1312 RA

Stav a předpovědi počasí z více než 4 000 letišť (zprávy METAR a TAF).

Červené a žluté tečky na mapě představují dostupné meteorologické stanice.

Když kurzor umístíte na tečku, zobrazí se název stanice.

Pak kliknutím zobrazíte stav a předpověď počasí.

Chcete-li změnit mapu, kliknutím na zelené tlačítko se znaménkem +mapu přiblížíte, kliknutím na zelené tlačítko se znaménkem – mapu oddálíte a kliknutím na zelené šipky přejdete na sousední mapy.


METAR-TAF: